sensor_id;sensor_type;location;lat;lon;timestamp;pressure;altitude;pressure_sealevel;temperature;humidity
16664;BME280;8445;51.270;9.434;2023-03-16T00:00:43;99998.88;;;-2.41;57.28
16664;BME280;8445;51.270;9.434;2023-03-16T00:03:12;99994.63;;;-2.45;56.14
16664;BME280;8445;51.270;9.434;2023-03-16T00:05:52;99987.75;;;-2.47;57.38
16664;BME280;8445;51.270;9.434;2023-03-16T00:08:18;99992.97;;;-2.52;56.17
16664;BME280;8445;51.270;9.434;2023-03-16T00:10:45;99993.88;;;-2.55;57.02
16664;BME280;8445;51.270;9.434;2023-03-16T00:13:18;99988.75;;;-2.59;56.59
16664;BME280;8445;51.270;9.434;2023-03-16T00:15:58;99989.53;;;-2.53;58.80
16664;BME280;8445;51.270;9.434;2023-03-16T00:18:26;99997.28;;;-2.49;57.27
16664;BME280;8445;51.270;9.434;2023-03-16T00:20:54;99996.25;;;-2.38;57.24
16664;BME280;8445;51.270;9.434;2023-03-16T00:23:21;99991.88;;;-2.32;56.63
16664;BME280;8445;51.270;9.434;2023-03-16T00:25:57;99990.91;;;-2.27;57.05
16664;BME280;8445;51.270;9.434;2023-03-16T00:28:24;99983.22;;;-2.33;56.90
16664;BME280;8445;51.270;9.434;2023-03-16T00:30:50;99980.69;;;-2.36;57.14
16664;BME280;8445;51.270;9.434;2023-03-16T00:33:16;99983.28;;;-2.36;58.84
16664;BME280;8445;51.270;9.434;2023-03-16T00:35:45;99988.41;;;-2.31;58.17
16664;BME280;8445;51.270;9.434;2023-03-16T00:38:18;99985.00;;;-2.36;57.79
16664;BME280;8445;51.270;9.434;2023-03-16T00:40:45;99980.75;;;-2.39;57.34
16664;BME280;8445;51.270;9.434;2023-03-16T00:43:10;99979.13;;;-2.49;57.74
16664;BME280;8445;51.270;9.434;2023-03-16T00:45:36;99984.44;;;-2.59;57.38
16664;BME280;8445;51.270;9.434;2023-03-16T00:48:02;99981.06;;;-2.65;56.67
16664;BME280;8445;51.270;9.434;2023-03-16T00:50:27;99984.50;;;-2.65;56.90
16664;BME280;8445;51.270;9.434;2023-03-16T00:52:53;99983.66;;;-2.65;58.14
16664;BME280;8445;51.270;9.434;2023-03-16T00:55:19;99986.25;;;-2.67;57.79
16664;BME280;8445;51.270;9.434;2023-03-16T00:57:45;99991.44;;;-2.67;57.54
16664;BME280;8445;51.270;9.434;2023-03-16T01:00:12;99989.69;;;-2.65;58.69
16664;BME280;8445;51.270;9.434;2023-03-16T01:02:42;99986.25;;;-2.67;58.22
16664;BME280;8445;51.270;9.434;2023-03-16T01:05:10;99992.25;;;-2.62;58.28
16664;BME280;8445;51.270;9.434;2023-03-16T01:07:38;99986.19;;;-2.61;57.34
16664;BME280;8445;51.270;9.434;2023-03-16T01:10:04;99986.19;;;-2.61;57.75
16664;BME280;8445;51.270;9.434;2023-03-16T01:12:30;99986.19;;;-2.61;58.20
16664;BME280;8445;51.270;9.434;2023-03-16T01:14:55;99981.88;;;-2.63;57.94
16664;BME280;8445;51.270;9.434;2023-03-16T01:17:21;99981.91;;;-2.65;58.22
16664;BME280;8445;51.270;9.434;2023-03-16T01:19:48;99970.75;;;-2.69;57.51
16664;BME280;8445;51.270;9.434;2023-03-16T01:22:14;99977.66;;;-2.69;58.13
16664;BME280;8445;51.270;9.434;2023-03-16T01:24:41;99966.47;;;-2.73;58.20
16664;BME280;8445;51.270;9.434;2023-03-16T01:27:09;99966.53;;;-2.79;57.61
16664;BME280;8445;51.270;9.434;2023-03-16T01:29:35;99971.78;;;-2.87;57.66
16664;BME280;8445;51.270;9.434;2023-03-16T01:32:01;99966.75;;;-2.98;58.22
16664;BME280;8445;51.270;9.434;2023-03-16T01:34:29;99966.00;;;-3.07;58.07
16664;BME280;8445;51.270;9.434;2023-03-16T01:36:56;99951.44;;;-3.18;58.36
16664;BME280;8445;51.270;9.434;2023-03-16T01:39:35;99948.06;;;-3.26;58.83
16664;BME280;8445;51.270;9.434;2023-03-16T01:42:01;99942.03;;;-3.28;57.24
16664;BME280;8445;51.270;9.434;2023-03-16T01:44:27;99935.94;;;-3.22;57.36
16664;BME280;8445;51.270;9.434;2023-03-16T01:47:01;99948.75;;;-3.08;57.42
16664;BME280;8445;51.270;9.434;2023-03-16T01:49:33;99946.91;;;-2.97;61.62
16664;BME280;8445;51.270;9.434;2023-03-16T01:52:03;99930.47;;;-2.94;57.38
16664;BME280;8445;51.270;9.434;2023-03-16T01:54:47;99937.31;;;-2.90;62.42
16664;BME280;8445;51.270;9.434;2023-03-16T01:57:17;99939.91;;;-2.92;57.76
16664;BME280;8445;51.270;9.434;2023-03-16T01:59:58;99951.09;;;-2.87;60.57
16664;BME280;8445;51.270;9.434;2023-03-16T02:02:55;99940.66;;;-2.80;59.46
16664;BME280;8445;51.270;9.434;2023-03-16T02:05:35;99953.50;;;-2.71;59.37
16664;BME280;8445;51.270;9.434;2023-03-16T02:08:04;99948.31;;;-2.71;59.48
16664;BME280;8445;51.270;9.434;2023-03-16T02:10:30;99948.28;;;-2.66;59.92
16664;BME280;8445;51.270;9.434;2023-03-16T02:12:58;99947.44;;;-2.69;58.30
16664;BME280;8445;51.270;9.434;2023-03-16T02:15:24;99950.97;;;-2.76;57.60
16664;BME280;8445;51.270;9.434;2023-03-16T02:17:51;99949.34;;;-2.83;57.57
16664;BME280;8445;51.270;9.434;2023-03-16T02:20:37;99948.50;;;-2.87;59.40
16664;BME280;8445;51.270;9.434;2023-03-16T02:23:09;99952.03;;;-2.94;58.14
16664;BME280;8445;51.270;9.434;2023-03-16T02:28:24;99946.75;;;-2.85;59.29
16664;BME280;8445;51.270;9.434;2023-03-16T02:30:52;99938.13;;;-2.87;58.44
16664;BME280;8445;51.270;9.434;2023-03-16T02:33:18;99930.41;;;-2.88;58.63
16664;BME280;8445;51.270;9.434;2023-03-16T02:35:45;99929.56;;;-2.92;59.58
16664;BME280;8445;51.270;9.434;2023-03-16T02:38:11;99920.97;;;-2.94;58.18
16664;BME280;8445;51.270;9.434;2023-03-16T02:40:44;99920.13;;;-2.94;58.88
16664;BME280;8445;51.270;9.434;2023-03-16T02:43:21;99921.78;;;-2.92;60.69
16664;BME280;8445;51.270;9.434;2023-03-16T02:46:01;99920.00;;;-2.85;60.37
16664;BME280;8445;51.270;9.434;2023-03-16T02:49:12;99907.84;;;-2.78;62.11
16664;BME280;8445;51.270;9.434;2023-03-16T02:51:30;99901.81;;;-2.80;59.24
16664;BME280;8445;51.270;9.434;2023-03-16T02:53:56;99895.69;;;-2.72;59.61
16664;BME280;8445;51.270;9.434;2023-03-16T02:56:23;99900.91;;;-2.75;59.18
16664;BME280;8445;51.270;9.434;2023-03-16T02:58:49;99903.44;;;-2.72;59.54
16664;BME280;8445;51.270;9.434;2023-03-16T03:01:17;99894.81;;;-2.72;58.94
16664;BME280;8445;51.270;9.434;2023-03-16T03:03:42;99893.09;;;-2.73;60.11
16664;BME280;8445;51.270;9.434;2023-03-16T03:06:08;99901.75;;;-2.74;59.45
16664;BME280;8445;51.270;9.434;2023-03-16T03:08:35;99894.88;;;-2.78;60.13
16664;BME280;8445;51.270;9.434;2023-03-16T03:11:01;99894.88;;;-2.78;60.26
16664;BME280;8445;51.270;9.434;2023-03-16T03:13:26;99885.44;;;-2.81;59.18
16664;BME280;8445;51.270;9.434;2023-03-16T03:15:52;99882.81;;;-2.79;59.18
16664;BME280;8445;51.270;9.434;2023-03-16T03:18:20;99891.50;;;-2.84;59.11
16664;BME280;8445;51.270;9.434;2023-03-16T03:20:46;99894.13;;;-2.85;59.68
16664;BME280;8445;51.270;9.434;2023-03-16T03:23:11;99889.81;;;-2.86;59.13
16664;BME280;8445;51.270;9.434;2023-03-16T03:25:36;99894.94;;;-2.81;59.47
16664;BME280;8445;51.270;9.434;2023-03-16T03:28:03;99896.59;;;-2.77;60.69
16664;BME280;8445;51.270;9.434;2023-03-16T03:30:32;99896.59;;;-2.77;59.13
16664;BME280;8445;51.270;9.434;2023-03-16T03:32:58;99901.75;;;-2.74;58.92
16664;BME280;8445;51.270;9.434;2023-03-16T03:35:24;99894.78;;;-2.69;59.82
16664;BME280;8445;51.270;9.434;2023-03-16T03:37:50;99890.50;;;-2.72;59.15
16664;BME280;8445;51.270;9.434;2023-03-16T03:40:17;99893.09;;;-2.73;59.03
16664;BME280;8445;51.270;9.434;2023-03-16T03:42:47;99889.59;;;-2.69;58.75
16664;BME280;8445;51.270;9.434;2023-03-16T03:45:13;99892.13;;;-2.66;59.72
16664;BME280;8445;51.270;9.434;2023-03-16T03:47:39;99887.88;;;-2.70;59.20
16664;BME280;8445;51.270;9.434;2023-03-16T03:50:08;99886.16;;;-2.71;59.03
16664;BME280;8445;51.270;9.434;2023-03-16T03:52:43;99892.13;;;-2.66;59.04
16664;BME280;8445;51.270;9.434;2023-03-16T03:55:09;99893.81;;;-2.63;59.33
16664;BME280;8445;51.270;9.434;2023-03-16T03:57:35;99882.69;;;-2.70;58.88
16664;BME280;8445;51.270;9.434;2023-03-16T04:00:00;99899.16;;;-2.74;59.03
16664;BME280;8445;51.270;9.434;2023-03-16T04:02:38;99898.34;;;-2.79;59.25
16664;BME280;8445;51.270;9.434;2023-03-16T04:05:06;99887.16;;;-2.81;59.55
16664;BME280;8445;51.270;9.434;2023-03-16T04:07:32;99894.91;;;-2.80;58.82
16664;BME280;8445;51.270;9.434;2023-03-16T04:10:02;99895.66;;;-2.70;59.70
16664;BME280;8445;51.270;9.434;2023-03-16T04:12:35;99895.59;;;-2.67;58.65
16664;BME280;8445;51.270;9.434;2023-03-16T04:15:02;99894.66;;;-2.61;59.19
16664;BME280;8445;51.270;9.434;2023-03-16T04:17:34;99886.00;;;-2.59;58.37
16664;BME280;8445;51.270;9.434;2023-03-16T04:20:02;99882.47;;;-2.53;59.88
16664;BME280;8445;51.270;9.434;2023-03-16T04:22:30;99885.03;;;-2.53;58.95
16664;BME280;8445;51.270;9.434;2023-03-16T04:24:56;99878.97;;;-2.50;58.99
16664;BME280;8445;51.270;9.434;2023-03-16T04:27:23;99874.69;;;-2.53;59.55
16664;BME280;8445;51.270;9.434;2023-03-16T04:29:49;99876.47;;;-2.57;58.93
16664;BME280;8445;51.270;9.434;2023-03-16T04:32:14;99867.00;;;-2.58;58.96
16664;BME280;8445;51.270;9.434;2023-03-16T04:34:41;99869.56;;;-2.56;59.87
16664;BME280;8445;51.270;9.434;2023-03-16T04:37:08;99867.00;;;-2.58;59.85
16664;BME280;8445;51.270;9.434;2023-03-16T04:39:37;99861.81;;;-2.58;58.83
16664;BME280;8445;51.270;9.434;2023-03-16T04:42:02;99870.41;;;-2.56;59.18
16664;BME280;8445;51.270;9.434;2023-03-16T04:44:28;99869.50;;;-2.53;58.91
16664;BME280;8445;51.270;9.434;2023-03-16T04:46:54;99883.34;;;-2.54;59.68
16664;BME280;8445;51.270;9.434;2023-03-16T04:49:22;99884.28;;;-2.60;59.07
16664;BME280;8445;51.270;9.434;2023-03-16T04:51:47;99885.13;;;-2.58;60.42
16664;BME280;8445;51.270;9.434;2023-03-16T04:54:16;99880.78;;;-2.57;59.70
16664;BME280;8445;51.270;9.434;2023-03-16T04:56:42;99880.88;;;-2.62;59.13
16664;BME280;8445;51.270;9.434;2023-03-16T04:59:31;99879.06;;;-2.58;59.39
16664;BME280;8445;51.270;9.434;2023-03-16T05:02:04;99886.00;;;-2.59;59.85
16664;BME280;8445;51.270;9.434;2023-03-16T05:04:29;99884.28;;;-2.60;59.51
16664;BME280;8445;51.270;9.434;2023-03-16T05:06:55;99871.38;;;-2.63;59.33
16664;BME280;8445;51.270;9.434;2023-03-16T05:09:25;99869.59;;;-2.59;59.84
16664;BME280;8445;51.270;9.434;2023-03-16T05:11:51;99877.34;;;-2.58;60.20
16664;BME280;8445;51.270;9.434;2023-03-16T05:14:16;99884.28;;;-2.60;60.03
16664;BME280;8445;51.270;9.434;2023-03-16T05:16:57;99879.06;;;-2.57;59.84
16664;BME280;8445;51.270;9.434;2023-03-16T05:19:23;99870.41;;;-2.56;59.22
16664;BME280;8445;51.270;9.434;2023-03-16T05:21:49;99880.75;;;-2.53;59.79
16664;BME280;8445;51.270;9.434;2023-03-16T05:24:15;99876.44;;;-2.54;59.09
16664;BME280;8445;51.270;9.434;2023-03-16T05:26:41;99877.19;;;-2.45;61.28
16664;BME280;8445;51.270;9.434;2023-03-16T05:29:10;99871.88;;;-2.36;59.45
16664;BME280;8445;51.270;9.434;2023-03-16T05:31:35;99870.03;;;-2.29;59.78
16664;BME280;8445;51.270;9.434;2023-03-16T05:34:07;99875.09;;;-2.21;60.04
16664;BME280;8445;51.270;9.434;2023-03-16T05:36:33;99877.69;;;-2.20;59.95
16664;BME280;8445;51.270;9.434;2023-03-16T05:39:05;99883.75;;;-2.22;59.64
16664;BME280;8445;51.270;9.434;2023-03-16T05:41:40;99878.41;;;-2.12;60.74
16664;BME280;8445;51.270;9.434;2023-03-16T05:44:35;99881.84;;;-2.11;60.74
16664;BME280;8445;51.270;9.434;2023-03-16T05:47:26;99883.41;;;-2.02;60.34
16664;BME280;8445;51.270;9.434;2023-03-16T05:49:55;99895.34;;;-1.92;60.84
16664;BME280;8445;51.270;9.434;2023-03-16T05:52:28;99884.84;;;-1.81;61.24
16664;BME280;8445;51.270;9.434;2023-03-16T05:54:55;99882.88;;;-1.70;60.85
16664;BME280;8445;51.270;9.434;2023-03-16T05:57:20;99883.50;;;-1.54;59.89
16664;BME280;8445;51.270;9.434;2023-03-16T05:59:49;99881.47;;;-1.39;60.40
16664;BME280;8445;51.270;9.434;2023-03-16T06:02:15;99885.47;;;-1.21;60.76
16664;BME280;8445;51.270;9.434;2023-03-16T06:04:40;99883.44;;;-1.07;60.64
16664;BME280;8445;51.270;9.434;2023-03-16T06:07:06;99889.03;;;-0.83;61.15
16664;BME280;8445;51.270;9.434;2023-03-16T06:09:32;99879.97;;;-0.63;61.30
16664;BME280;8445;51.270;9.434;2023-03-16T06:11:59;99878.56;;;-0.39;60.68
16664;BME280;8445;51.270;9.434;2023-03-16T06:14:25;99881.31;;;-0.09;61.68
16664;BME280;8445;51.270;9.434;2023-03-16T06:16:52;99877.19;;;0.19;61.55
16664;BME280;8445;51.270;9.434;2023-03-16T06:19:19;99879.19;;;0.42;60.96
16664;BME280;8445;51.270;9.434;2023-03-16T06:21:49;99861.22;;;0.66;60.45
16664;BME280;8445;51.270;9.434;2023-03-16T06:24:16;99874.34;;;0.93;60.19
16664;BME280;8445;51.270;9.434;2023-03-16T06:26:41;99882.28;;;1.20;60.23
16664;BME280;8445;51.270;9.434;2023-03-16T06:29:10;99870.25;;;1.45;60.38
16664;BME280;8445;51.270;9.434;2023-03-16T06:31:37;99874.69;;;1.70;60.04
16664;BME280;8445;51.270;9.434;2023-03-16T06:34:04;99870.44;;;1.95;59.99
16664;BME280;8445;51.270;9.434;2023-03-16T06:36:30;99880.09;;;2.19;60.04
16664;BME280;8445;51.270;9.434;2023-03-16T06:38:58;99870.69;;;2.39;59.41
16664;BME280;8445;51.270;9.434;2023-03-16T06:41:29;99869.34;;;2.54;60.17
16664;BME280;8445;51.270;9.434;2023-03-16T06:43:54;99871.47;;;2.68;59.77
16664;BME280;8445;51.270;9.434;2023-03-16T06:46:20;99869.31;;;2.79;59.84
16664;BME280;8445;51.270;9.434;2023-03-16T06:48:45;99867.22;;;2.89;59.69
16664;BME280;8445;51.270;9.434;2023-03-16T06:51:12;99870.59;;;2.93;59.40
16664;BME280;8445;51.270;9.434;2023-03-16T06:53:37;99863.66;;;2.92;59.65
16664;BME280;8445;51.270;9.434;2023-03-16T06:56:03;99858.06;;;3.01;59.43
16664;BME280;8445;51.270;9.434;2023-03-16T06:58:31;99860.00;;;2.96;59.55
16664;BME280;8445;51.270;9.434;2023-03-16T07:01:00;99857.34;;;2.97;59.84
16664;BME280;8445;51.270;9.434;2023-03-16T07:03:26;99862.50;;;3.23;59.92
16664;BME280;8445;51.270;9.434;2023-03-16T07:05:57;99869.31;;;3.27;59.60
16664;BME280;8445;51.270;9.434;2023-03-16T07:08:23;99867.91;;;3.18;59.63
16664;BME280;8445;51.270;9.434;2023-03-16T07:10:52;99865.53;;;3.12;59.71
16664;BME280;8445;51.270;9.434;2023-03-16T07:13:19;99866.75;;;3.25;60.10
16664;BME280;8445;51.270;9.434;2023-03-16T07:15:44;99867.28;;;3.35;60.48
16664;BME280;8445;51.270;9.434;2023-03-16T07:18:10;99880.00;;;3.45;60.94
16664;BME280;8445;51.270;9.434;2023-03-16T07:20:37;99882.66;;;3.65;60.71
16664;BME280;8445;51.270;9.434;2023-03-16T07:23:07;99872.41;;;3.83;60.14
16664;BME280;8445;51.270;9.434;2023-03-16T07:25:34;99882.25;;;3.98;60.46
16664;BME280;8445;51.270;9.434;2023-03-16T07:27:59;99872.56;;;4.21;60.52
16664;BME280;8445;51.270;9.434;2023-03-16T07:30:30;99875.66;;;4.52;59.91
16664;BME280;8445;51.270;9.434;2023-03-16T07:32:56;99876.66;;;4.70;59.84
16664;BME280;8445;51.270;9.434;2023-03-16T07:35:23;99863.91;;;4.81;59.94
16664;BME280;8445;51.270;9.434;2023-03-16T07:37:51;99866.66;;;4.78;60.08
16664;BME280;8445;51.270;9.434;2023-03-16T07:40:17;99871.50;;;4.87;60.35
16664;BME280;8445;51.270;9.434;2023-03-16T07:42:43;99871.38;;;4.90;60.00
16664;BME280;8445;51.270;9.434;2023-03-16T07:45:24;99882.41;;;4.78;59.59
16664;BME280;8445;51.270;9.434;2023-03-16T07:47:50;99878.94;;;4.78;59.91
16664;BME280;8445;51.270;9.434;2023-03-16T07:50:24;99873.56;;;4.81;59.35
16664;BME280;8445;51.270;9.434;2023-03-16T07:52:51;99873.63;;;4.79;59.44
16664;BME280;8445;51.270;9.434;2023-03-16T07:55:16;99879.13;;;4.73;60.04
16664;BME280;8445;51.270;9.434;2023-03-16T07:57:43;99873.63;;;4.79;59.90
16664;BME280;8445;51.270;9.434;2023-03-16T08:00:13;99872.38;;;4.88;60.01
16664;BME280;8445;51.270;9.434;2023-03-16T08:02:39;99873.59;;;5.00;59.57
16664;BME280;8445;51.270;9.434;2023-03-16T08:05:07;99863.53;;;5.10;59.74
16664;BME280;8445;51.270;9.434;2023-03-16T08:07:36;99866.75;;;5.16;59.37
16664;BME280;8445;51.270;9.434;2023-03-16T08:10:09;99868.78;;;5.10;59.45
16664;BME280;8445;51.270;9.434;2023-03-16T08:12:44;99860.06;;;5.09;59.79
16664;BME280;8445;51.270;9.434;2023-03-16T08:15:10;99861.00;;;5.08;59.64
16664;BME280;8445;51.270;9.434;2023-03-16T08:17:36;99864.03;;;5.18;59.85
16664;BME280;8445;51.270;9.434;2023-03-16T08:20:05;99858.63;;;5.40;59.75
16664;BME280;8445;51.270;9.434;2023-03-16T08:22:34;99853.09;;;5.46;59.60
16664;BME280;8445;51.270;9.434;2023-03-16T08:25:06;99859.84;;;5.52;59.39
16664;BME280;8445;51.270;9.434;2023-03-16T08:27:40;99858.06;;;5.53;59.10
16664;BME280;8445;51.270;9.434;2023-03-16T08:30:11;99859.75;;;5.54;59.20
16664;BME280;8445;51.270;9.434;2023-03-16T08:32:50;99856.22;;;5.55;58.66
16664;BME280;8445;51.270;9.434;2023-03-16T08:35:19;99855.38;;;5.54;58.70
16664;BME280;8445;51.270;9.434;2023-03-16T08:37:50;99857.91;;;5.56;58.90
16664;BME280;8445;51.270;9.434;2023-03-16T08:40:22;99857.00;;;5.57;58.76
16664;BME280;8445;51.270;9.434;2023-03-16T08:42:51;99858.06;;;5.53;58.50
16664;BME280;8445;51.270;9.434;2023-03-16T08:45:21;99853.09;;;5.46;58.35
16664;BME280;8445;51.270;9.434;2023-03-16T08:47:55;99858.63;;;5.40;58.22
16664;BME280;8445;51.270;9.434;2023-03-16T08:50:25;99859.22;;;5.28;58.15
16664;BME280;8445;51.270;9.434;2023-03-16T08:52:55;99854.97;;;5.25;58.07
16664;BME280;8445;51.270;9.434;2023-03-16T08:55:28;99854.25;;;5.22;58.12
16664;BME280;8445;51.270;9.434;2023-03-16T08:57:57;99856.16;;;5.18;58.21
16664;BME280;8445;51.270;9.434;2023-03-16T09:00:27;99856.09;;;5.19;58.18
16664;BME280;8445;51.270;9.434;2023-03-16T09:02:56;99854.13;;;5.25;58.30
16664;BME280;8445;51.270;9.434;2023-03-16T09:05:26;99854.75;;;5.30;58.16
16664;BME280;8445;51.270;9.434;2023-03-16T09:07:55;99859.56;;;5.39;58.32
16664;BME280;8445;51.270;9.434;2023-03-16T09:10:24;99850.56;;;5.45;58.07
16664;BME280;8445;51.270;9.434;2023-03-16T09:12:53;99847.72;;;5.49;57.95
16664;BME280;8445;51.270;9.434;2023-03-16T09:15:20;99849.13;;;5.57;57.89
16664;BME280;8445;51.270;9.434;2023-03-16T09:17:52;99847.97;;;5.62;57.58
16664;BME280;8445;51.270;9.434;2023-03-16T09:20:19;99846.91;;;5.67;57.63
16664;BME280;8445;51.270;9.434;2023-03-16T09:22:45;99832.94;;;5.66;57.79
16664;BME280;8445;51.270;9.434;2023-03-16T09:25:11;99836.19;;;5.71;57.72
16664;BME280;8445;51.270;9.434;2023-03-16T09:27:36;99838.38;;;5.81;57.62
16664;BME280;8445;51.270;9.434;2023-03-16T09:30:04;99828.50;;;5.86;57.51
16664;BME280;8445;51.270;9.434;2023-03-16T09:32:30;99834.34;;;5.91;57.19
16664;BME280;8445;51.270;9.434;2023-03-16T09:34:56;99828.03;;;5.95;57.37
16664;BME280;8445;51.270;9.434;2023-03-16T09:37:22;99824.28;;;6.01;57.10
16664;BME280;8445;51.270;9.434;2023-03-16T09:39:48;99824.13;;;6.04;57.04
16664;BME280;8445;51.270;9.434;2023-03-16T09:42:29;99822.66;;;6.16;56.57
16664;BME280;8445;51.270;9.434;2023-03-16T09:47:33;99821.13;;;6.29;57.02
16664;BME280;8445;51.270;9.434;2023-03-16T09:50:07;99817.94;;;6.40;56.75
16664;BME280;8445;51.270;9.434;2023-03-16T09:52:45;99819.81;;;6.54;56.90
16664;BME280;8445;51.270;9.434;2023-03-16T09:55:30;99838.00;;;6.59;56.92
16664;BME280;8445;51.270;9.434;2023-03-16T09:57:58;99819.50;;;6.60;56.75
16664;BME280;8445;51.270;9.434;2023-03-16T10:00:29;99822.91;;;6.62;56.76
16664;BME280;8445;51.270;9.434;2023-03-16T10:06:06;99819.63;;;6.75;56.28
16664;BME280;8445;51.270;9.434;2023-03-16T10:08:43;99819.38;;;6.79;56.61
16664;BME280;8445;51.270;9.434;2023-03-16T10:11:21;99818.22;;;6.85;56.27
16664;BME280;8445;51.270;9.434;2023-03-16T10:16:41;99808.97;;;6.94;54.80
16664;BME280;8445;51.270;9.434;2023-03-16T10:22:20;99810.88;;;7.24;56.62
16664;BME280;8445;51.270;9.434;2023-03-16T10:24:55;99810.72;;;7.27;55.02
16664;BME280;8445;51.270;9.434;2023-03-16T10:27:32;99803.47;;;7.31;55.68
16664;BME280;8445;51.270;9.434;2023-03-16T10:29:58;99786.41;;;7.38;56.07
16664;BME280;8445;51.270;9.434;2023-03-16T10:32:30;99798.13;;;7.48;55.40
16664;BME280;8445;51.270;9.434;2023-03-16T10:35:01;99790.47;;;7.60;55.88
16664;BME280;8445;51.270;9.434;2023-03-16T10:37:29;99784.75;;;7.67;55.76
16664;BME280;8445;51.270;9.434;2023-03-16T10:39:55;99781.69;;;7.75;55.44
16664;BME280;8445;51.270;9.434;2023-03-16T10:42:23;99780.56;;;7.79;55.27
16664;BME280;8445;51.270;9.434;2023-03-16T10:44:57;99787.53;;;7.80;55.13
16664;BME280;8445;51.270;9.434;2023-03-16T10:47:31;99792.44;;;7.86;55.21
16664;BME280;8445;51.270;9.434;2023-03-16T10:50:13;99791.34;;;7.91;53.40
16664;BME280;8445;51.270;9.434;2023-03-16T10:52:46;99784.28;;;7.91;54.70
16664;BME280;8445;51.270;9.434;2023-03-16T10:55:19;99784.94;;;7.95;54.51
16664;BME280;8445;51.270;9.434;2023-03-16T10:57:53;99778.56;;;7.99;53.14
16664;BME280;8445;51.270;9.434;2023-03-16T11:00:34;99779.03;;;8.06;54.39
16664;BME280;8445;51.270;9.434;2023-03-16T11:03:00;99789.13;;;8.13;54.78
16664;BME280;8445;51.270;9.434;2023-03-16T11:05:37;99782.47;;;8.22;54.15
16664;BME280;8445;51.270;9.434;2023-03-16T11:08:06;99776.06;;;8.26;54.09
16664;BME280;8445;51.270;9.434;2023-03-16T11:10:38;99777.47;;;8.32;53.38
16664;BME280;8445;51.270;9.434;2023-03-16T11:15:42;99788.84;;;8.63;52.42
16664;BME280;8445;51.270;9.434;2023-03-16T11:20:55;99773.66;;;8.96;54.36
16664;BME280;8445;51.270;9.434;2023-03-16T11:23:30;99767.69;;;9.07;53.92
16664;BME280;8445;51.270;9.434;2023-03-16T11:26:00;99782.38;;;9.11;53.09
16664;BME280;8445;51.270;9.434;2023-03-16T11:28:35;99768.28;;;9.25;53.51
16664;BME280;8445;51.270;9.434;2023-03-16T11:33:49;99763.09;;;9.38;53.23
16664;BME280;8445;51.270;9.434;2023-03-16T11:39:14;99747.31;;;9.63;51.67
16664;BME280;8445;51.270;9.434;2023-03-16T11:41:51;99734.03;;;9.65;53.22
16664;BME280;8445;51.270;9.434;2023-03-16T11:44:29;99735.47;;;9.56;52.28
16664;BME280;8445;51.270;9.434;2023-03-16T11:49:56;99742.19;;;9.47;50.53
16664;BME280;8445;51.270;9.434;2023-03-16T11:55:22;99729.16;;;9.72;51.16
16664;BME280;8445;51.270;9.434;2023-03-16T12:01:22;99738.34;;;10.45;51.53
16664;BME280;8445;51.270;9.434;2023-03-16T12:15:25;99710.66;;;12.42;54.63
16664;BME280;8445;51.270;9.434;2023-03-16T12:18:02;99710.91;;;12.62;53.12
16664;BME280;8445;51.270;9.434;2023-03-16T12:20:40;99691.31;;;12.86;53.16
16664;BME280;8445;51.270;9.434;2023-03-16T12:23:12;99680.69;;;12.86;53.28
16664;BME280;8445;51.270;9.434;2023-03-16T12:25:42;99687.19;;;12.93;51.34
16664;BME280;8445;51.270;9.434;2023-03-16T12:28:21;99675.88;;;12.80;51.41
16664;BME280;8445;51.270;9.434;2023-03-16T12:31:04;99671.44;;;12.80;50.50
16664;BME280;8445;51.270;9.434;2023-03-16T12:33:46;99666.13;;;12.80;52.67
16664;BME280;8445;51.270;9.434;2023-03-16T12:36:34;99663.06;;;12.85;52.67
16664;BME280;8445;51.270;9.434;2023-03-16T12:39:19;99662.75;;;12.78;49.38
16664;BME280;8445;51.270;9.434;2023-03-16T12:42:02;99655.72;;;12.88;52.10
16664;BME280;8445;51.270;9.434;2023-03-16T12:44:56;99662.47;;;12.93;47.72
16664;BME280;8445;51.270;9.434;2023-03-16T12:50:17;99648.34;;;12.92;50.74
16664;BME280;8445;51.270;9.434;2023-03-16T12:52:49;99628.47;;;12.86;50.31
16664;BME280;8445;51.270;9.434;2023-03-16T12:55:18;99631.25;;;12.73;49.93
16664;BME280;8445;51.270;9.434;2023-03-16T12:57:48;99628.59;;;12.73;50.89
16664;BME280;8445;51.270;9.434;2023-03-16T13:00:18;99624.13;;;12.85;49.93
16664;BME280;8445;51.270;9.434;2023-03-16T13:02:49;99622.69;;;12.81;45.16
16664;BME280;8445;51.270;9.434;2023-03-16T13:05:26;99614.72;;;12.81;45.99
16664;BME280;8445;51.270;9.434;2023-03-16T13:08:04;99626.91;;;13.05;49.03
16664;BME280;8445;51.270;9.434;2023-03-16T13:10:31;99618.91;;;13.16;49.07
16664;BME280;8445;51.270;9.434;2023-03-16T13:13:13;99618.00;;;13.06;44.17
16664;BME280;8445;51.270;9.434;2023-03-16T13:15:40;99621.09;;;13.11;49.57
16664;BME280;8445;51.270;9.434;2023-03-16T13:21:00;99620.53;;;12.64;44.12
16664;BME280;8445;51.270;9.434;2023-03-16T13:26:22;99621.09;;;12.00;46.61
16664;BME280;8445;51.270;9.434;2023-03-16T13:28:53;99612.13;;;11.67;47.70
16664;BME280;8445;51.270;9.434;2023-03-16T13:31:35;99615.19;;;11.50;47.72
16664;BME280;8445;51.270;9.434;2023-03-16T13:34:02;99609.88;;;11.38;47.80
16664;BME280;8445;51.270;9.434;2023-03-16T13:36:31;99601.22;;;11.48;48.58
16664;BME280;8445;51.270;9.434;2023-03-16T13:39:12;99593.56;;;11.67;48.33
16664;BME280;8445;51.270;9.434;2023-03-16T13:41:39;99591.88;;;11.89;48.34
16664;BME280;8445;51.270;9.434;2023-03-16T13:44:12;99583.00;;;12.13;48.04
16664;BME280;8445;51.270;9.434;2023-03-16T13:46:38;99574.31;;;12.34;48.29
16664;BME280;8445;51.270;9.434;2023-03-16T13:49:04;99575.13;;;12.45;48.68
16664;BME280;8445;51.270;9.434;2023-03-16T13:51:33;99568.81;;;12.58;48.61
16664;BME280;8445;51.270;9.434;2023-03-16T13:54:16;99569.88;;;12.67;45.93
16664;BME280;8445;51.270;9.434;2023-03-16T13:56:43;99568.19;;;12.66;48.05
16664;BME280;8445;51.270;9.434;2023-03-16T13:59:09;99564.78;;;12.75;48.43
16664;BME280;8445;51.270;9.434;2023-03-16T14:01:36;99565.13;;;12.70;47.55
16664;BME280;8445;51.270;9.434;2023-03-16T14:04:05;99565.97;;;12.82;48.45
16664;BME280;8445;51.270;9.434;2023-03-16T14:06:36;99558.09;;;12.81;48.16
16664;BME280;8445;51.270;9.434;2023-03-16T14:09:05;99548.97;;;12.73;47.34
16664;BME280;8445;51.270;9.434;2023-03-16T14:11:32;99544.13;;;12.79;48.13
16664;BME280;8445;51.270;9.434;2023-03-16T14:13:59;99538.09;;;12.77;48.20
16664;BME280;8445;51.270;9.434;2023-03-16T14:16:29;99541.13;;;12.72;42.74
16664;BME280;8445;51.270;9.434;2023-03-16T14:19:00;99549.56;;;12.77;47.56
16664;BME280;8445;51.270;9.434;2023-03-16T14:21:29;99552.09;;;12.79;48.32
16664;BME280;8445;51.270;9.434;2023-03-16T14:24:02;99560.31;;;12.97;48.06